sensor_id;sensor_type;location;lat;lon;timestamp;P1;durP1;ratioP1;P2;durP2;ratioP2
71038;SDS011;58692;43.212;27.908;2023-05-14T00:02:12;17.53;;;9.90;;
71038;SDS011;58692;43.212;27.908;2023-05-14T00:04:38;14.23;;;9.30;;
71038;SDS011;58692;43.212;27.908;2023-05-14T00:07:03;23.23;;;12.40;;
71038;SDS011;58692;43.212;27.908;2023-05-14T00:09:29;31.00;;;18.73;;
71038;SDS011;58692;43.212;27.908;2023-05-14T00:11:55;35.27;;;23.70;;
71038;SDS011;58692;43.212;27.908;2023-05-14T00:14:20;29.20;;;20.52;;
71038;SDS011;58692;43.212;27.908;2023-05-14T00:16:46;19.90;;;14.40;;
71038;SDS011;58692;43.212;27.908;2023-05-14T00:19:11;20.00;;;13.10;;
71038;SDS011;58692;43.212;27.908;2023-05-14T00:21:38;17.00;;;11.32;;
71038;SDS011;58692;43.212;27.908;2023-05-14T00:24:03;17.37;;;10.70;;
71038;SDS011;58692;43.212;27.908;2023-05-14T00:26:29;19.30;;;11.37;;
71038;SDS011;58692;43.212;27.908;2023-05-14T00:28:54;16.45;;;10.68;;
71038;SDS011;58692;43.212;27.908;2023-05-14T00:31:20;17.67;;;10.73;;
71038;SDS011;58692;43.212;27.908;2023-05-14T00:33:45;14.37;;;9.70;;
71038;SDS011;58692;43.212;27.908;2023-05-14T00:36:11;15.02;;;10.13;;
71038;SDS011;58692;43.212;27.908;2023-05-14T00:38:36;15.90;;;10.60;;
71038;SDS011;58692;43.212;27.908;2023-05-14T00:41:02;16.50;;;10.30;;
71038;SDS011;58692;43.212;27.908;2023-05-14T00:43:28;15.73;;;10.05;;
71038;SDS011;58692;43.212;27.908;2023-05-14T00:45:53;17.00;;;10.40;;
71038;SDS011;58692;43.212;27.908;2023-05-14T00:48:20;16.38;;;10.25;;
71038;SDS011;58692;43.212;27.908;2023-05-14T00:50:46;16.38;;;10.65;;
71038;SDS011;58692;43.212;27.908;2023-05-14T00:53:13;20.67;;;11.33;;
71038;SDS011;58692;43.212;27.908;2023-05-14T00:55:40;19.52;;;11.60;;
71038;SDS011;58692;43.212;27.908;2023-05-14T00:58:08;18.10;;;11.15;;
71038;SDS011;58692;43.212;27.908;2023-05-14T01:00:34;18.95;;;11.68;;
71038;SDS011;58692;43.212;27.908;2023-05-14T01:03:01;19.45;;;11.63;;
71038;SDS011;58692;43.212;27.908;2023-05-14T01:05:28;25.47;;;12.23;;
71038;SDS011;58692;43.212;27.908;2023-05-14T01:10:51;19.75;;;11.15;;
71038;SDS011;58692;43.212;27.908;2023-05-14T01:13:26;17.65;;;10.25;;
71038;SDS011;58692;43.212;27.908;2023-05-14T01:15:57;18.85;;;9.82;;
71038;SDS011;58692;43.212;27.908;2023-05-14T01:18:24;14.53;;;9.00;;
71038;SDS011;58692;43.212;27.908;2023-05-14T01:20:52;13.60;;;8.57;;
71038;SDS011;58692;43.212;27.908;2023-05-14T01:23:19;14.63;;;8.85;;
71038;SDS011;58692;43.212;27.908;2023-05-14T01:25:45;14.55;;;8.20;;
71038;SDS011;58692;43.212;27.908;2023-05-14T01:28:12;15.33;;;8.50;;
71038;SDS011;58692;43.212;27.908;2023-05-14T01:30:50;14.07;;;8.25;;
71038;SDS011;58692;43.212;27.908;2023-05-14T01:33:23;15.10;;;8.82;;
71038;SDS011;58692;43.212;27.908;2023-05-14T01:35:51;16.90;;;10.23;;
71038;SDS011;58692;43.212;27.908;2023-05-14T01:38:19;19.53;;;12.10;;
71038;SDS011;58692;43.212;27.908;2023-05-14T01:40:45;18.58;;;11.50;;
71038;SDS011;58692;43.212;27.908;2023-05-14T01:43:12;18.00;;;11.25;;
71038;SDS011;58692;43.212;27.908;2023-05-14T01:45:38;18.63;;;10.07;;
71038;SDS011;58692;43.212;27.908;2023-05-14T01:48:04;18.83;;;10.77;;
71038;SDS011;58692;43.212;27.908;2023-05-14T01:50:30;14.13;;;9.20;;
71038;SDS011;58692;43.212;27.908;2023-05-14T01:52:55;14.10;;;9.10;;
71038;SDS011;58692;43.212;27.908;2023-05-14T01:55:21;16.90;;;10.25;;
71038;SDS011;58692;43.212;27.908;2023-05-14T01:57:48;15.27;;;10.03;;
71038;SDS011;58692;43.212;27.908;2023-05-14T02:00:15;17.08;;;11.55;;
71038;SDS011;58692;43.212;27.908;2023-05-14T02:02:41;20.42;;;12.80;;
71038;SDS011;58692;43.212;27.908;2023-05-14T02:05:07;18.60;;;12.63;;
71038;SDS011;58692;43.212;27.908;2023-05-14T02:07:33;20.23;;;13.15;;
71038;SDS011;58692;43.212;27.908;2023-05-14T02:09:58;20.17;;;12.33;;
71038;SDS011;58692;43.212;27.908;2023-05-14T02:12:24;22.03;;;13.10;;
71038;SDS011;58692;43.212;27.908;2023-05-14T02:14:50;20.83;;;13.50;;
71038;SDS011;58692;43.212;27.908;2023-05-14T02:17:15;19.50;;;12.97;;
71038;SDS011;58692;43.212;27.908;2023-05-14T02:19:42;19.98;;;13.07;;
71038;SDS011;58692;43.212;27.908;2023-05-14T02:22:08;19.97;;;12.87;;
71038;SDS011;58692;43.212;27.908;2023-05-14T02:24:33;18.58;;;12.65;;
71038;SDS011;58692;43.212;27.908;2023-05-14T02:26:59;20.60;;;13.00;;
71038;SDS011;58692;43.212;27.908;2023-05-14T02:29:25;23.08;;;14.07;;
71038;SDS011;58692;43.212;27.908;2023-05-14T02:31:51;23.90;;;15.10;;
71038;SDS011;58692;43.212;27.908;2023-05-14T02:34:17;22.93;;;14.60;;
71038;SDS011;58692;43.212;27.908;2023-05-14T02:36:42;20.50;;;13.63;;
71038;SDS011;58692;43.212;27.908;2023-05-14T02:39:08;19.97;;;12.17;;
71038;SDS011;58692;43.212;27.908;2023-05-14T02:41:33;18.77;;;12.15;;
71038;SDS011;58692;43.212;27.908;2023-05-14T02:43:59;19.53;;;12.30;;
71038;SDS011;58692;43.212;27.908;2023-05-14T02:46:24;19.50;;;12.32;;
71038;SDS011;58692;43.212;27.908;2023-05-14T02:48:49;23.97;;;13.80;;
71038;SDS011;58692;43.212;27.908;2023-05-14T02:51:15;21.57;;;13.23;;
71038;SDS011;58692;43.212;27.908;2023-05-14T02:53:41;19.80;;;12.80;;
71038;SDS011;58692;43.212;27.908;2023-05-14T02:56:06;19.23;;;12.37;;
71038;SDS011;58692;43.212;27.908;2023-05-14T02:58:32;19.47;;;12.77;;
71038;SDS011;58692;43.212;27.908;2023-05-14T03:00:58;22.38;;;13.10;;
71038;SDS011;58692;43.212;27.908;2023-05-14T03:03:23;20.10;;;12.50;;
71038;SDS011;58692;43.212;27.908;2023-05-14T03:05:49;20.63;;;12.43;;
71038;SDS011;58692;43.212;27.908;2023-05-14T03:08:15;21.27;;;12.27;;
71038;SDS011;58692;43.212;27.908;2023-05-14T03:10:40;20.73;;;12.83;;
71038;SDS011;58692;43.212;27.908;2023-05-14T03:13:06;20.90;;;12.83;;
71038;SDS011;58692;43.212;27.908;2023-05-14T03:15:31;24.77;;;13.43;;
71038;SDS011;58692;43.212;27.908;2023-05-14T03:17:57;23.63;;;13.13;;
71038;SDS011;58692;43.212;27.908;2023-05-14T03:20:23;20.93;;;14.03;;
71038;SDS011;58692;43.212;27.908;2023-05-14T03:22:49;26.35;;;15.98;;
71038;SDS011;58692;43.212;27.908;2023-05-14T03:25:15;28.25;;;17.20;;
71038;SDS011;58692;43.212;27.908;2023-05-14T03:27:40;31.33;;;19.67;;
71038;SDS011;58692;43.212;27.908;2023-05-14T03:30:06;33.93;;;21.50;;
71038;SDS011;58692;43.212;27.908;2023-05-14T03:32:32;37.03;;;23.67;;
71038;SDS011;58692;43.212;27.908;2023-05-14T03:34:57;37.03;;;23.87;;
71038;SDS011;58692;43.212;27.908;2023-05-14T03:37:23;37.35;;;25.15;;
71038;SDS011;58692;43.212;27.908;2023-05-14T03:39:48;38.40;;;22.10;;
71038;SDS011;58692;43.212;27.908;2023-05-14T03:42:14;34.57;;;19.93;;
71038;SDS011;58692;43.212;27.908;2023-05-14T03:44:39;31.05;;;18.77;;
71038;SDS011;58692;43.212;27.908;2023-05-14T03:47:05;32.10;;;18.97;;
71038;SDS011;58692;43.212;27.908;2023-05-14T03:49:30;32.40;;;18.33;;
71038;SDS011;58692;43.212;27.908;2023-05-14T03:51:56;29.75;;;18.17;;
71038;SDS011;58692;43.212;27.908;2023-05-14T03:54:23;28.10;;;18.53;;
71038;SDS011;58692;43.212;27.908;2023-05-14T03:56:49;32.15;;;19.58;;
71038;SDS011;58692;43.212;27.908;2023-05-14T03:59:14;32.70;;;20.15;;
71038;SDS011;58692;43.212;27.908;2023-05-14T04:01:40;36.07;;;20.80;;
71038;SDS011;58692;43.212;27.908;2023-05-14T04:04:06;37.50;;;20.87;;
71038;SDS011;58692;43.212;27.908;2023-05-14T04:06:31;34.13;;;19.92;;
71038;SDS011;58692;43.212;27.908;2023-05-14T04:08:57;32.72;;;19.35;;
71038;SDS011;58692;43.212;27.908;2023-05-14T04:11:23;34.57;;;20.07;;
71038;SDS011;58692;43.212;27.908;2023-05-14T04:13:48;27.63;;;18.97;;
71038;SDS011;58692;43.212;27.908;2023-05-14T04:16:14;31.17;;;19.50;;
71038;SDS011;58692;43.212;27.908;2023-05-14T04:18:39;27.02;;;17.50;;
71038;SDS011;58692;43.212;27.908;2023-05-14T04:21:05;29.17;;;17.10;;
71038;SDS011;58692;43.212;27.908;2023-05-14T04:23:30;28.50;;;17.23;;
71038;SDS011;58692;43.212;27.908;2023-05-14T04:25:56;27.73;;;16.33;;
71038;SDS011;58692;43.212;27.908;2023-05-14T04:28:22;27.00;;;16.05;;
71038;SDS011;58692;43.212;27.908;2023-05-14T04:30:48;24.70;;;15.27;;
71038;SDS011;58692;43.212;27.908;2023-05-14T04:33:13;25.00;;;15.27;;
71038;SDS011;58692;43.212;27.908;2023-05-14T04:35:39;22.27;;;12.80;;
71038;SDS011;58692;43.212;27.908;2023-05-14T04:38:05;20.25;;;12.82;;
71038;SDS011;58692;43.212;27.908;2023-05-14T04:40:30;25.23;;;12.90;;
71038;SDS011;58692;43.212;27.908;2023-05-14T04:42:56;18.73;;;12.50;;
71038;SDS011;58692;43.212;27.908;2023-05-14T04:45:22;19.73;;;11.97;;
71038;SDS011;58692;43.212;27.908;2023-05-14T04:47:47;20.00;;;12.75;;
71038;SDS011;58692;43.212;27.908;2023-05-14T04:50:13;18.43;;;11.93;;
71038;SDS011;58692;43.212;27.908;2023-05-14T04:52:39;19.95;;;11.82;;
71038;SDS011;58692;43.212;27.908;2023-05-14T04:55:04;19.03;;;11.43;;
71038;SDS011;58692;43.212;27.908;2023-05-14T04:57:30;18.63;;;11.77;;
71038;SDS011;58692;43.212;27.908;2023-05-14T04:59:56;19.13;;;11.93;;
71038;SDS011;58692;43.212;27.908;2023-05-14T05:02:21;19.93;;;12.10;;
71038;SDS011;58692;43.212;27.908;2023-05-14T05:04:47;18.02;;;11.73;;
71038;SDS011;58692;43.212;27.908;2023-05-14T05:07:12;19.33;;;12.07;;
71038;SDS011;58692;43.212;27.908;2023-05-14T05:09:38;20.10;;;12.27;;
71038;SDS011;58692;43.212;27.908;2023-05-14T05:12:04;20.90;;;12.40;;
71038;SDS011;58692;43.212;27.908;2023-05-14T05:14:30;18.83;;;12.67;;
71038;SDS011;58692;43.212;27.908;2023-05-14T05:16:56;20.20;;;12.10;;
71038;SDS011;58692;43.212;27.908;2023-05-14T05:19:21;19.83;;;13.43;;
71038;SDS011;58692;43.212;27.908;2023-05-14T05:21:47;21.03;;;12.73;;
71038;SDS011;58692;43.212;27.908;2023-05-14T05:24:12;21.48;;;13.32;;
71038;SDS011;58692;43.212;27.908;2023-05-14T05:26:38;20.50;;;13.53;;
71038;SDS011;58692;43.212;27.908;2023-05-14T05:29:04;21.40;;;14.10;;
71038;SDS011;58692;43.212;27.908;2023-05-14T05:31:30;19.55;;;12.88;;
71038;SDS011;58692;43.212;27.908;2023-05-14T05:33:57;15.68;;;10.27;;
71038;SDS011;58692;43.212;27.908;2023-05-14T05:36:23;14.82;;;9.75;;
71038;SDS011;58692;43.212;27.908;2023-05-14T05:38:49;14.63;;;9.57;;
71038;SDS011;58692;43.212;27.908;2023-05-14T05:41:15;14.00;;;9.30;;
71038;SDS011;58692;43.212;27.908;2023-05-14T05:43:40;14.50;;;9.10;;
71038;SDS011;58692;43.212;27.908;2023-05-14T05:46:06;16.70;;;9.13;;
71038;SDS011;58692;43.212;27.908;2023-05-14T05:48:31;15.13;;;8.57;;
71038;SDS011;58692;43.212;27.908;2023-05-14T05:50:57;11.73;;;7.83;;
71038;SDS011;58692;43.212;27.908;2023-05-14T05:53:22;12.02;;;6.75;;
71038;SDS011;58692;43.212;27.908;2023-05-14T05:55:48;11.17;;;7.00;;
71038;SDS011;58692;43.212;27.908;2023-05-14T05:58:16;9.55;;;6.10;;
71038;SDS011;58692;43.212;27.908;2023-05-14T06:00:42;12.38;;;6.30;;
71038;SDS011;58692;43.212;27.908;2023-05-14T06:03:07;11.13;;;6.20;;
71038;SDS011;58692;43.212;27.908;2023-05-14T06:05:33;12.30;;;6.40;;
71038;SDS011;58692;43.212;27.908;2023-05-14T06:07:58;10.77;;;6.03;;
71038;SDS011;58692;43.212;27.908;2023-05-14T06:10:24;10.57;;;6.00;;
71038;SDS011;58692;43.212;27.908;2023-05-14T06:12:49;10.03;;;5.97;;
71038;SDS011;58692;43.212;27.908;2023-05-14T06:15:15;11.25;;;5.63;;
71038;SDS011;58692;43.212;27.908;2023-05-14T06:17:40;10.17;;;5.03;;
71038;SDS011;58692;43.212;27.908;2023-05-14T06:20:06;9.27;;;5.30;;
71038;SDS011;58692;43.212;27.908;2023-05-14T06:22:32;8.13;;;4.50;;
71038;SDS011;58692;43.212;27.908;2023-05-14T06:24:58;9.23;;;4.68;;
71038;SDS011;58692;43.212;27.908;2023-05-14T06:27:23;7.20;;;4.33;;
71038;SDS011;58692;43.212;27.908;2023-05-14T06:29:49;7.68;;;4.38;;
71038;SDS011;58692;43.212;27.908;2023-05-14T06:32:14;8.60;;;4.27;;
71038;SDS011;58692;43.212;27.908;2023-05-14T06:34:40;9.27;;;4.50;;
71038;SDS011;58692;43.212;27.908;2023-05-14T06:37:06;8.23;;;4.10;;
71038;SDS011;58692;43.212;27.908;2023-05-14T06:39:33;6.80;;;3.35;;
71038;SDS011;58692;43.212;27.908;2023-05-14T06:41:59;7.78;;;4.68;;
71038;SDS011;58692;43.212;27.908;2023-05-14T06:44:25;8.43;;;3.57;;
71038;SDS011;58692;43.212;27.908;2023-05-14T06:46:50;5.60;;;3.40;;
71038;SDS011;58692;43.212;27.908;2023-05-14T06:49:16;6.85;;;2.80;;
71038;SDS011;58692;43.212;27.908;2023-05-14T06:51:41;7.03;;;2.77;;
71038;SDS011;58692;43.212;27.908;2023-05-14T06:54:07;4.38;;;2.40;;
71038;SDS011;58692;43.212;27.908;2023-05-14T06:56:33;4.93;;;2.20;;
71038;SDS011;58692;43.212;27.908;2023-05-14T06:58:58;7.50;;;3.70;;
71038;SDS011;58692;43.212;27.908;2023-05-14T07:01:24;8.23;;;3.20;;
71038;SDS011;58692;43.212;27.908;2023-05-14T07:03:49;6.33;;;2.93;;
71038;SDS011;58692;43.212;27.908;2023-05-14T07:06:15;4.50;;;2.70;;
71038;SDS011;58692;43.212;27.908;2023-05-14T07:08:41;6.60;;;2.77;;
71038;SDS011;58692;43.212;27.908;2023-05-14T07:11:10;5.68;;;2.80;;
71038;SDS011;58692;43.212;27.908;2023-05-14T07:13:35;7.00;;;2.60;;
71038;SDS011;58692;43.212;27.908;2023-05-14T07:16:01;5.00;;;2.42;;
71038;SDS011;58692;43.212;27.908;2023-05-14T07:18:26;5.77;;;2.80;;
71038;SDS011;58692;43.212;27.908;2023-05-14T07:20:52;5.35;;;2.42;;
71038;SDS011;58692;43.212;27.908;2023-05-14T07:23:18;6.20;;;2.20;;
71038;SDS011;58692;43.212;27.908;2023-05-14T07:25:43;5.77;;;2.53;;
71038;SDS011;58692;43.212;27.908;2023-05-14T07:28:09;5.13;;;2.50;;
71038;SDS011;58692;43.212;27.908;2023-05-14T07:30:34;6.97;;;2.77;;
71038;SDS011;58692;43.212;27.908;2023-05-14T07:33:00;5.03;;;2.50;;
71038;SDS011;58692;43.212;27.908;2023-05-14T07:35:25;6.70;;;2.90;;
71038;SDS011;58692;43.212;27.908;2023-05-14T07:37:51;6.13;;;3.20;;
71038;SDS011;58692;43.212;27.908;2023-05-14T07:40:17;7.40;;;2.70;;
71038;SDS011;58692;43.212;27.908;2023-05-14T07:42:42;5.70;;;2.63;;
71038;SDS011;58692;43.212;27.908;2023-05-14T07:45:08;5.60;;;2.60;;
71038;SDS011;58692;43.212;27.908;2023-05-14T07:47:34;5.03;;;2.20;;
71038;SDS011;58692;43.212;27.908;2023-05-14T07:49:59;6.28;;;2.47;;
71038;SDS011;58692;43.212;27.908;2023-05-14T07:52:25;5.77;;;2.30;;
71038;SDS011;58692;43.212;27.908;2023-05-14T07:54:50;5.93;;;2.20;;
71038;SDS011;58692;43.212;27.908;2023-05-14T07:57:16;6.47;;;2.10;;
71038;SDS011;58692;43.212;27.908;2023-05-14T07:59:43;5.68;;;2.22;;
71038;SDS011;58692;43.212;27.908;2023-05-14T08:02:08;6.70;;;2.67;;
71038;SDS011;58692;43.212;27.908;2023-05-14T08:04:36;5.55;;;2.50;;
71038;SDS011;58692;43.212;27.908;2023-05-14T08:07:02;4.53;;;2.47;;
71038;SDS011;58692;43.212;27.908;2023-05-14T08:09:28;4.77;;;2.40;;
71038;SDS011;58692;43.212;27.908;2023-05-14T08:11:53;4.50;;;2.50;;
71038;SDS011;58692;43.212;27.908;2023-05-14T08:14:18;5.03;;;2.50;;
71038;SDS011;58692;43.212;27.908;2023-05-14T08:16:45;4.00;;;2.30;;
71038;SDS011;58692;43.212;27.908;2023-05-14T08:19:11;6.15;;;2.75;;
71038;SDS011;58692;43.212;27.908;2023-05-14T08:21:37;4.80;;;2.80;;
71038;SDS011;58692;43.212;27.908;2023-05-14T08:24:03;4.00;;;2.40;;
71038;SDS011;58692;43.212;27.908;2023-05-14T08:26:29;5.70;;;2.40;;
71038;SDS011;58692;43.212;27.908;2023-05-14T08:28:54;4.37;;;2.33;;
71038;SDS011;58692;43.212;27.908;2023-05-14T08:31:20;4.27;;;2.60;;
71038;SDS011;58692;43.212;27.908;2023-05-14T08:33:45;4.83;;;2.80;;
71038;SDS011;58692;43.212;27.908;2023-05-14T08:36:11;7.25;;;3.08;;
71038;SDS011;58692;43.212;27.908;2023-05-14T08:38:36;4.90;;;2.70;;
71038;SDS011;58692;43.212;27.908;2023-05-14T08:41:01;4.97;;;2.80;;
71038;SDS011;58692;43.212;27.908;2023-05-14T08:43:35;9.10;;;2.97;;
71038;SDS011;58692;43.212;27.908;2023-05-14T08:46:08;7.28;;;2.72;;
71038;SDS011;58692;43.212;27.908;2023-05-14T08:48:38;4.90;;;2.67;;
71038;SDS011;58692;43.212;27.908;2023-05-14T08:51:06;4.95;;;2.65;;
71038;SDS011;58692;43.212;27.908;2023-05-14T08:53:33;3.80;;;2.23;;
71038;SDS011;58692;43.212;27.908;2023-05-14T08:55:59;4.40;;;2.20;;
71038;SDS011;58692;43.212;27.908;2023-05-14T08:58:25;3.38;;;2.10;;
71038;SDS011;58692;43.212;27.908;2023-05-14T09:00:52;5.00;;;2.43;;
71038;SDS011;58692;43.212;27.908;2023-05-14T09:03:19;4.63;;;2.20;;
71038;SDS011;58692;43.212;27.908;2023-05-14T09:05:45;6.88;;;2.47;;
71038;SDS011;58692;43.212;27.908;2023-05-14T09:08:13;4.78;;;2.10;;
71038;SDS011;58692;43.212;27.908;2023-05-14T09:10:38;5.03;;;2.50;;
71038;SDS011;58692;43.212;27.908;2023-05-14T09:13:04;3.65;;;2.17;;
71038;SDS011;58692;43.212;27.908;2023-05-14T09:15:30;5.18;;;2.35;;
71038;SDS011;58692;43.212;27.908;2023-05-14T09:17:58;4.77;;;2.13;;
71038;SDS011;58692;43.212;27.908;2023-05-14T09:20:23;5.85;;;2.70;;
71038;SDS011;58692;43.212;27.908;2023-05-14T09:22:52;5.80;;;2.70;;
71038;SDS011;58692;43.212;27.908;2023-05-14T09:25:18;6.20;;;2.42;;
71038;SDS011;58692;43.212;27.908;2023-05-14T09:27:45;4.80;;;2.45;;
71038;SDS011;58692;43.212;27.908;2023-05-14T09:30:14;6.07;;;3.20;;
71038;SDS011;58692;43.212;27.908;2023-05-14T09:32:40;7.78;;;2.75;;
71038;SDS011;58692;43.212;27.908;2023-05-14T09:35:11;8.52;;;3.25;;
71038;SDS011;58692;43.212;27.908;2023-05-14T09:37:41;6.50;;;2.97;;
71038;SDS011;58692;43.212;27.908;2023-05-14T09:40:07;5.87;;;3.03;;
71038;SDS011;58692;43.212;27.908;2023-05-14T09:42:34;7.28;;;3.80;;
71038;SDS011;58692;43.212;27.908;2023-05-14T09:44:59;8.83;;;4.40;;
71038;SDS011;58692;43.212;27.908;2023-05-14T09:47:25;8.45;;;4.00;;
71038;SDS011;58692;43.212;27.908;2023-05-14T09:49:51;7.75;;;3.78;;
71038;SDS011;58692;43.212;27.908;2023-05-14T09:52:18;7.83;;;3.67;;
71038;SDS011;58692;43.212;27.908;2023-05-14T09:54:43;5.30;;;3.20;;
71038;SDS011;58692;43.212;27.908;2023-05-14T09:57:11;7.25;;;3.30;;
71038;SDS011;58692;43.212;27.908;2023-05-14T09:59:36;6.77;;;2.70;;
71038;SDS011;58692;43.212;27.908;2023-05-14T10:02:02;4.67;;;2.80;;
71038;SDS011;58692;43.212;27.908;2023-05-14T10:06:57;6.40;;;3.17;;
71038;SDS011;58692;43.212;27.908;2023-05-14T10:09:24;5.45;;;2.85;;
71038;SDS011;58692;43.212;27.908;2023-05-14T10:11:52;7.00;;;2.95;;
71038;SDS011;58692;43.212;27.908;2023-05-14T10:14:24;7.07;;;2.93;;
71038;SDS011;58692;43.212;27.908;2023-05-14T10:16:53;5.85;;;3.00;;
71038;SDS011;58692;43.212;27.908;2023-05-14T10:19:22;6.13;;;3.10;;
71038;SDS011;58692;43.212;27.908;2023-05-14T10:21:52;6.18;;;3.22;;
71038;SDS011;58692;43.212;27.908;2023-05-14T10:24:20;6.25;;;3.33;;
71038;SDS011;58692;43.212;27.908;2023-05-14T10:26:46;7.87;;;3.87;;
71038;SDS011;58692;43.212;27.908;2023-05-14T10:29:12;7.45;;;3.40;;
71038;SDS011;58692;43.212;27.908;2023-05-14T10:37:02;6.43;;;2.97;;
71038;SDS011;58692;43.212;27.908;2023-05-14T10:45:00;8.55;;;4.18;;
71038;SDS011;58692;43.212;27.908;2023-05-14T10:47:30;6.45;;;3.33;;
71038;SDS011;58692;43.212;27.908;2023-05-14T10:49:57;8.20;;;3.03;;
71038;SDS011;58692;43.212;27.908;2023-05-14T10:52:24;6.57;;;3.22;;
71038;SDS011;58692;43.212;27.908;2023-05-14T10:54:52;5.28;;;3.05;;
71038;SDS011;58692;43.212;27.908;2023-05-14T10:57:20;6.63;;;3.55;;
71038;SDS011;58692;43.212;27.908;2023-05-14T10:59:47;6.82;;;2.70;;
71038;SDS011;58692;43.212;27.908;2023-05-14T11:02:17;7.20;;;3.37;;
71038;SDS011;58692;43.212;27.908;2023-05-14T11:04:51;6.85;;;3.30;;
71038;SDS011;58692;43.212;27.908;2023-05-14T11:07:23;7.00;;;3.70;;
71038;SDS011;58692;43.212;27.908;2023-05-14T11:09:51;6.47;;;2.88;;
71038;SDS011;58692;43.212;27.908;2023-05-14T11:12:17;6.20;;;2.90;;
71038;SDS011;58692;43.212;27.908;2023-05-14T11:14:44;5.50;;;2.50;;
71038;SDS011;58692;43.212;27.908;2023-05-14T11:17:10;6.60;;;3.05;;
71038;SDS011;58692;43.212;27.908;2023-05-14T11:19:36;6.43;;;2.60;;
71038;SDS011;58692;43.212;27.908;2023-05-14T11:22:01;5.30;;;2.50;;
71038;SDS011;58692;43.212;27.908;2023-05-14T11:24:27;4.85;;;2.50;;
71038;SDS011;58692;43.212;27.908;2023-05-14T11:26:53;5.53;;;2.87;;
71038;SDS011;58692;43.212;27.908;2023-05-14T11:29:20;4.55;;;2.78;;
71038;SDS011;58692;43.212;27.908;2023-05-14T11:31:46;6.33;;;2.90;;
71038;SDS011;58692;43.212;27.908;2023-05-14T11:34:11;7.45;;;2.95;;
71038;SDS011;58692;43.212;27.908;2023-05-14T11:36:37;5.43;;;2.60;;
71038;SDS011;58692;43.212;27.908;2023-05-14T11:39:02;5.80;;;3.00;;
71038;SDS011;58692;43.212;27.908;2023-05-14T11:41:28;6.17;;;3.27;;
71038;SDS011;58692;43.212;27.908;2023-05-14T11:43:55;5.88;;;3.03;;
71038;SDS011;58692;43.212;27.908;2023-05-14T11:46:21;6.35;;;2.83;;
71038;SDS011;58692;43.212;27.908;2023-05-14T11:48:46;8.23;;;3.00;;
71038;SDS011;58692;43.212;27.908;2023-05-14T11:51:12;5.53;;;2.93;;
71038;SDS011;58692;43.212;27.908;2023-05-14T11:53:38;6.32;;;3.20;;
71038;SDS011;58692;43.212;27.908;2023-05-14T11:56:03;5.95;;;2.78;;
71038;SDS011;58692;43.212;27.908;2023-05-14T11:58:31;6.53;;;2.50;;
71038;SDS011;58692;43.212;27.908;2023-05-14T12:00:57;5.35;;;2.90;;
71038;SDS011;58692;43.212;27.908;2023-05-14T12:03:23;6.10;;;2.83;;
71038;SDS011;58692;43.212;27.908;2023-05-14T12:05:58;6.72;;;3.45;;
71038;SDS011;58692;43.212;27.908;2023-05-14T12:08:25;8.88;;;3.25;;
71038;SDS011;58692;43.212;27.908;2023-05-14T12:10:52;5.05;;;2.83;;
71038;SDS011;58692;43.212;27.908;2023-05-14T12:13:18;8.85;;;3.50;;
71038;SDS011;58692;43.212;27.908;2023-05-14T12:15:45;7.93;;;3.60;;
71038;SDS011;58692;43.212;27.908;2023-05-14T12:18:13;7.18;;;3.60;;
71038;SDS011;58692;43.212;27.908;2023-05-14T12:20:45;6.45;;;3.17;;
71038;SDS011;58692;43.212;27.908;2023-05-14T12:23:11;8.15;;;3.63;;
71038;SDS011;58692;43.212;27.908;2023-05-14T12:25:37;7.72;;;3.40;;
71038;SDS011;58692;43.212;27.908;2023-05-14T12:28:12;8.73;;;3.50;;
71038;SDS011;58692;43.212;27.908;2023-05-14T12:30:38;6.25;;;2.90;;
71038;SDS011;58692;43.212;27.908;2023-05-14T12:33:04;8.23;;;3.20;;
71038;SDS011;58692;43.212;27.908;2023-05-14T12:35:30;6.87;;;2.90;;
71038;SDS011;58692;43.212;27.908;2023-05-14T12:37:55;5.80;;;2.80;;
71038;SDS011;58692;43.212;27.908;2023-05-14T12:40:21;6.67;;;2.97;;
71038;SDS011;58692;43.212;27.908;2023-05-14T12:42:46;7.40;;;3.10;;
71038;SDS011;58692;43.212;27.908;2023-05-14T12:45:12;5.83;;;3.03;;
71038;SDS011;58692;43.212;27.908;2023-05-14T12:47:37;7.40;;;3.63;;
71038;SDS011;58692;43.212;27.908;2023-05-14T12:50:03;7.13;;;3.40;;
71038;SDS011;58692;43.212;27.908;2023-05-14T12:52:28;6.65;;;3.65;;
71038;SDS011;58692;43.212;27.908;2023-05-14T12:54:54;6.40;;;3.17;;
71038;SDS011;58692;43.212;27.908;2023-05-14T12:57:19;6.63;;;3.20;;
71038;SDS011;58692;43.212;27.908;2023-05-14T12:59:45;7.65;;;3.45;;
71038;SDS011;58692;43.212;27.908;2023-05-14T13:02:10;6.67;;;3.00;;
71038;SDS011;58692;43.212;27.908;2023-05-14T13:04:36;6.67;;;3.43;;
71038;SDS011;58692;43.212;27.908;2023-05-14T13:07:02;8.45;;;3.60;;
71038;SDS011;58692;43.212;27.908;2023-05-14T13:09:27;7.00;;;3.53;;
71038;SDS011;58692;43.212;27.908;2023-05-14T13:11:53;6.90;;;3.20;;
71038;SDS011;58692;43.212;27.908;2023-05-14T13:14:18;5.27;;;2.70;;
71038;SDS011;58692;43.212;27.908;2023-05-14T13:16:44;5.67;;;2.80;;
71038;SDS011;58692;43.212;27.908;2023-05-14T13:19:09;6.68;;;3.55;;
71038;SDS011;58692;43.212;27.908;2023-05-14T13:21:35;7.13;;;2.87;;
71038;SDS011;58692;43.212;27.908;2023-05-14T13:24:00;5.77;;;2.80;;
71038;SDS011;58692;43.212;27.908;2023-05-14T13:26:26;4.80;;;2.80;;
71038;SDS011;58692;43.212;27.908;2023-05-14T13:28:52;6.80;;;3.17;;
71038;SDS011;58692;43.212;27.908;2023-05-14T13:31:18;7.15;;;3.10;;
71038;SDS011;58692;43.212;27.908;2023-05-14T13:33:43;6.67;;;2.97;;
71038;SDS011;58692;43.212;27.908;2023-05-14T13:36:10;6.25;;;3.05;;
71038;SDS011;58692;43.212;27.908;2023-05-14T13:38:37;8.73;;;3.70;;
71038;SDS011;58692;43.212;27.908;2023-05-14T13:41:03;5.40;;;3.10;;
71038;SDS011;58692;43.212;27.908;2023-05-14T13:43:30;6.05;;;2.90;;
71038;SDS011;58692;43.212;27.908;2023-05-14T13:45:57;6.85;;;2.72;;
71038;SDS011;58692;43.212;27.908;2023-05-14T13:48:23;6.17;;;2.90;;
71038;SDS011;58692;43.212;27.908;2023-05-14T13:50:50;5.13;;;2.80;;
71038;SDS011;58692;43.212;27.908;2023-05-14T13:53:16;6.15;;;3.00;;
71038;SDS011;58692;43.212;27.908;2023-05-14T13:55:43;6.15;;;2.67;;
71038;SDS011;58692;43.212;27.908;2023-05-14T13:58:09;6.13;;;2.90;;
71038;SDS011;58692;43.212;27.908;2023-05-14T14:00:34;7.30;;;2.72;;
71038;SDS011;58692;43.212;27.908;2023-05-14T14:03:00;7.95;;;2.92;;
71038;SDS011;58692;43.212;27.908;2023-05-14T14:05:25;6.37;;;2.93;;
71038;SDS011;58692;43.212;27.908;2023-05-14T14:07:53;6.47;;;3.08;;
71038;SDS011;58692;43.212;27.908;2023-05-14T14:10:20;7.00;;;3.57;;
71038;SDS011;58692;43.212;27.908;2023-05-14T14:12:45;6.18;;;3.25;;
71038;SDS011;58692;43.212;27.908;2023-05-14T14:15:11;7.53;;;3.28;;
71038;SDS011;58692;43.212;27.908;2023-05-14T14:17:38;6.68;;;3.45;;
71038;SDS011;58692;43.212;27.908;2023-05-14T14:20:06;6.15;;;3.60;;
71038;SDS011;58692;43.212;27.908;2023-05-14T14:22:32;7.93;;;3.80;;
71038;SDS011;58692;43.212;27.908;2023-05-14T14:24:58;7.40;;;3.30;;
71038;SDS011;58692;43.212;27.908;2023-05-14T14:27:23;9.13;;;3.70;;
71038;SDS011;58692;43.212;27.908;2023-05-14T14:29:49;7.88;;;3.72;;
71038;SDS011;58692;43.212;27.908;2023-05-14T14:32:14;8.40;;;4.07;;
71038;SDS011;58692;43.212;27.908;2023-05-14T14:34:40;7.65;;;4.50;;